< < Back
Terminal Aerodrome Forecast


Current Version              Previous Versions:   1  2  3  4  5  6  7  8  9  

Terminal Aerodrome Forecast

393
FTUS42 KGSP 291734
TAFAVL
TAF
KAVL 291734Z 2918/3018 34009KT P6SM SCT200
     FM300100 33004KT P6SM SCT080 BKN200
     FM301500 15006KT P6SM BKN080=

Latest METAR

943
SAUS70 KWBC 291800 RRM
MTRAVL
METAR KAVL 291754Z 36007KT 10SM CLR 26/07 A3003 RMK AO2 SLP146 T02560067
10261 20172 58009


USA.gov is the U.S. government's official web portal to all federal, state and local government web resources and services.